AVA8510 SKPE-SKBO
Flight info
| Callsign | AVA8510 |
|---|---|
| Flight time | 0h 30m |
| Altitude | 29000 |
| Route | TOLIM1C TOLIM DCT GIR GIR5E |
| Aircraft | A320/M-SDE3FGHIRWY/LB1 |
Departure
| Time | 2026-04-22 13:54 |
|---|---|
| Airport | Matecaña International Airport (SKPE) |
Arrival
| Time | 2026-04-22 14:25 |
|---|---|
| Airport | El Dorado International Airport (SKBO) |
| Time | Latitude | Longitude | Altitude | Speed | Heading |
|---|---|---|---|---|---|
| 2026-04-22 13:32 | 4.81502 | -75.73713 | 4427 ft | 0 kts | 342° |
| 2026-04-22 13:47 | 4.81486 | -75.73711 | 4428 ft | 4 kts | 351° |
| 2026-04-22 13:47 | 4.81459 | -75.73706 | 4429 ft | 4 kts | 345° |
| 2026-04-22 13:47 | 4.81451 | -75.73704 | 4431 ft | 0 kts | 342° |
| 2026-04-22 13:50 | 4.81452 | -75.73707 | 4430 ft | 1 kts | 317° |
| 2026-04-22 13:50 | 4.81443 | -75.73743 | 4427 ft | 11 kts | 256° |
| 2026-04-22 13:50 | 4.81396 | -75.73841 | 4425 ft | 15 kts | 223° |
| 2026-04-22 13:51 | 4.81304 | -75.73922 | 4423 ft | 18 kts | 224° |
| 2026-04-22 13:51 | 4.81236 | -75.74046 | 4418 ft | 25 kts | 253° |
| 2026-04-22 13:51 | 4.81176 | -75.74233 | 4408 ft | 33 kts | 252° |
| 2026-04-22 13:51 | 4.81114 | -75.74430 | 4392 ft | 26 kts | 252° |
| 2026-04-22 13:52 | 4.81059 | -75.74601 | 4372 ft | 28 kts | 251° |
| 2026-04-22 13:52 | 4.81007 | -75.74761 | 4357 ft | 21 kts | 252° |
| 2026-04-22 13:52 | 4.80954 | -75.74866 | 4349 ft | 11 kts | 226° |
| 2026-04-22 13:52 | 4.80959 | -75.74901 | 4344 ft | 4 kts | 338° |
| 2026-04-22 13:53 | 4.80964 | -75.74898 | 4345 ft | 0 kts | 31° |
| 2026-04-22 13:53 | 4.80967 | -75.74888 | 4340 ft | 0 kts | 73° |
| 2026-04-22 13:53 | 4.80994 | -75.74802 | 4359 ft | 49 kts | 72° |
| 2026-04-22 13:53 | 4.81188 | -75.74204 | 4410 ft | 128 kts | 72° |
| 2026-04-22 13:54 | 4.81546 | -75.73150 | 4607 ft | 179 kts | 70° |
| 2026-04-22 13:54 | 4.81769 | -75.71916 | 5566 ft | 182 kts | 86° |
| 2026-04-22 13:54 | 4.81541 | -75.70696 | 6571 ft | 178 kts | 122° |
| 2026-04-22 13:54 | 4.80632 | -75.69893 | 7119 ft | 179 kts | 160° |
| 2026-04-22 13:55 | 4.79403 | -75.69814 | 7625 ft | 182 kts | 197° |
| 2026-04-22 13:55 | 4.78300 | -75.70441 | 8167 ft | 184 kts | 214° |
| 2026-04-22 13:55 | 4.77253 | -75.71190 | 8623 ft | 186 kts | 215° |
| 2026-04-22 13:55 | 4.76196 | -75.71948 | 9073 ft | 187 kts | 216° |
| 2026-04-22 13:56 | 4.75136 | -75.72711 | 9615 ft | 188 kts | 216° |
| 2026-04-22 13:56 | 4.74063 | -75.73481 | 10050 ft | 192 kts | 217° |
| 2026-04-22 13:56 | 4.72971 | -75.74265 | 10053 ft | 192 kts | 217° |
| 2026-04-22 13:56 | 4.71927 | -75.75085 | 10037 ft | 190 kts | 229° |
| 2026-04-22 13:57 | 4.71192 | -75.76189 | 10070 ft | 198 kts | 239° |
| 2026-04-22 13:57 | 4.70118 | -75.77131 | 10208 ft | 221 kts | 200° |
| 2026-04-22 13:57 | 4.68546 | -75.77119 | 10420 ft | 238 kts | 160° |
| 2026-04-22 13:57 | 4.67033 | -75.76406 | 10836 ft | 242 kts | 153° |
| 2026-04-22 13:58 | 4.65546 | -75.75602 | 11310 ft | 244 kts | 152° |
| 2026-04-22 13:58 | 4.64044 | -75.74785 | 11699 ft | 252 kts | 152° |
| 2026-04-22 13:58 | 4.62416 | -75.73920 | 11876 ft | 277 kts | 153° |
| 2026-04-22 13:58 | 4.60630 | -75.72995 | 12151 ft | 301 kts | 153° |
| 2026-04-22 13:59 | 4.58715 | -75.72025 | 12399 ft | 324 kts | 154° |
| 2026-04-22 13:59 | 4.56628 | -75.70983 | 12716 ft | 343 kts | 155° |
| 2026-04-22 13:59 | 4.54459 | -75.69914 | 13356 ft | 350 kts | 155° |
| 2026-04-22 13:59 | 4.52258 | -75.68838 | 14065 ft | 355 kts | 155° |
| 2026-04-22 14:00 | 4.50025 | -75.67749 | 14708 ft | 357 kts | 155° |
| 2026-04-22 14:00 | 4.47784 | -75.66654 | 15403 ft | 360 kts | 154° |
| 2026-04-22 14:00 | 4.45551 | -75.65507 | 16066 ft | 363 kts | 149° |
| 2026-04-22 14:00 | 4.43539 | -75.63959 | 16743 ft | 367 kts | 136° |
| 2026-04-22 14:01 | 4.41902 | -75.61982 | 17396 ft | 371 kts | 123° |
| 2026-04-22 14:01 | 4.40725 | -75.59667 | 18044 ft | 376 kts | 111° |
| 2026-04-22 14:01 | 4.39919 | -75.57160 | 18649 ft | 380 kts | 108° |
| 2026-04-22 14:01 | 4.39130 | -75.54621 | 19187 ft | 383 kts | 108° |
| 2026-04-22 14:02 | 4.38334 | -75.52061 | 19724 ft | 387 kts | 108° |
| 2026-04-22 14:02 | 4.37529 | -75.49480 | 20244 ft | 390 kts | 108° |
| 2026-04-22 14:02 | 4.36732 | -75.46869 | 20755 ft | 394 kts | 108° |
| 2026-04-22 14:02 | 4.35954 | -75.44221 | 21241 ft | 398 kts | 107° |
| 2026-04-22 14:03 | 4.35186 | -75.41546 | 21714 ft | 402 kts | 107° |
| 2026-04-22 14:03 | 4.34417 | -75.38843 | 22179 ft | 405 kts | 107° |
| 2026-04-22 14:03 | 4.33639 | -75.36111 | 22636 ft | 409 kts | 107° |
| 2026-04-22 14:03 | 4.32850 | -75.33363 | 23033 ft | 413 kts | 107° |
| 2026-04-22 14:04 | 4.32052 | -75.30596 | 23131 ft | 410 kts | 107° |
| 2026-04-22 14:04 | 4.31274 | -75.27908 | 23148 ft | 395 kts | 107° |
| 2026-04-22 14:04 | 4.30508 | -75.25278 | 23138 ft | 391 kts | 107° |
| 2026-04-22 14:04 | 4.29746 | -75.22672 | 23141 ft | 389 kts | 107° |
| 2026-04-22 14:05 | 4.28985 | -75.20071 | 23131 ft | 389 kts | 108° |
| 2026-04-22 14:05 | 4.28225 | -75.17468 | 23126 ft | 389 kts | 107° |
| 2026-04-22 14:05 | 4.26710 | -75.12272 | 23121 ft | 389 kts | 108° |
| 2026-04-22 14:06 | 4.25948 | -75.09667 | 23124 ft | 389 kts | 107° |
| 2026-04-22 14:06 | 4.25190 | -75.07063 | 23122 ft | 389 kts | 107° |
| 2026-04-22 14:06 | 4.24443 | -75.04497 | 23114 ft | 389 kts | 107° |
| 2026-04-22 14:06 | 4.23687 | -75.01896 | 23114 ft | 389 kts | 107° |
| 2026-04-22 14:07 | 4.22933 | -74.99293 | 23047 ft | 389 kts | 107° |
| 2026-04-22 14:07 | 4.22175 | -74.96689 | 23037 ft | 389 kts | 107° |
| 2026-04-22 14:07 | 4.21617 | -74.94045 | 23122 ft | 390 kts | 94° |
| 2026-04-22 14:07 | 4.21872 | -74.91355 | 23015 ft | 390 kts | 74° |
| 2026-04-22 14:08 | 4.22991 | -74.88889 | 23000 ft | 390 kts | 54° |
| 2026-04-22 14:08 | 4.24838 | -74.86933 | 22990 ft | 388 kts | 35° |
| 2026-04-22 14:08 | 4.27205 | -74.85670 | 22984 ft | 386 kts | 17° |
| 2026-04-22 14:08 | 4.29822 | -74.85148 | 22980 ft | 384 kts | 6° |
| 2026-04-22 14:09 | 4.32473 | -74.84797 | 22974 ft | 384 kts | 6° |
| 2026-04-22 14:09 | 4.35134 | -74.84451 | 22977 ft | 385 kts | 6° |
| 2026-04-22 14:09 | 4.37791 | -74.84109 | 22993 ft | 386 kts | 6° |
| 2026-04-22 14:09 | 4.40450 | -74.83766 | 23009 ft | 386 kts | 6° |
| 2026-04-22 14:10 | 4.43120 | -74.83421 | 23033 ft | 386 kts | 6° |
| 2026-04-22 14:10 | 4.45815 | -74.83071 | 23074 ft | 397 kts | 6° |
| 2026-04-22 14:10 | 4.48597 | -74.82707 | 23092 ft | 408 kts | 6° |
| 2026-04-22 14:10 | 4.51425 | -74.82332 | 23112 ft | 410 kts | 6° |
| 2026-04-22 14:11 | 4.54217 | -74.81961 | 23074 ft | 396 kts | 6° |
| 2026-04-22 14:11 | 4.56904 | -74.81605 | 22963 ft | 383 kts | 6° |
| 2026-04-22 14:11 | 4.59516 | -74.81259 | 22680 ft | 376 kts | 6° |
| 2026-04-22 14:11 | 4.62097 | -74.80917 | 22304 ft | 372 kts | 6° |
| 2026-04-22 14:12 | 4.64656 | -74.80580 | 21910 ft | 370 kts | 6° |
| 2026-04-22 14:12 | 4.67201 | -74.80244 | 21488 ft | 367 kts | 6° |
| 2026-04-22 14:12 | 4.69725 | -74.79912 | 21085 ft | 365 kts | 7° |
| 2026-04-22 14:12 | 4.72240 | -74.79583 | 20699 ft | 363 kts | 7° |
| 2026-04-22 14:13 | 4.74739 | -74.79252 | 20299 ft | 361 kts | 7° |
| 2026-04-22 14:13 | 4.77227 | -74.79072 | 19926 ft | 358 kts | 356° |
| 2026-04-22 14:13 | 4.78864 | -74.79241 | 19684 ft | 355 kts | 351° |
| 2026-04-22 14:13 | 4.82108 | -74.79632 | 19247 ft | 352 kts | 359° |
| 2026-04-22 14:14 | 4.84511 | -74.79295 | 18913 ft | 349 kts | 18° |
| 2026-04-22 14:14 | 4.86666 | -74.78197 | 18519 ft | 349 kts | 38° |
| 2026-04-22 14:14 | 4.88323 | -74.76453 | 18169 ft | 344 kts | 57° |
| 2026-04-22 14:14 | 4.89321 | -74.74308 | 17833 ft | 338 kts | 77° |
| 2026-04-22 14:15 | 4.89636 | -74.71994 | 17470 ft | 334 kts | 89° |
| 2026-04-22 14:15 | 4.89722 | -74.70426 | 17217 ft | 333 kts | 88° |
| 2026-04-22 14:15 | 4.89846 | -74.68116 | 16872 ft | 331 kts | 89° |
| 2026-04-22 14:15 | 4.89967 | -74.65812 | 16535 ft | 330 kts | 89° |
| 2026-04-22 14:16 | 4.90127 | -74.62775 | 16129 ft | 327 kts | 89° |
| 2026-04-22 14:16 | 4.90208 | -74.61272 | 15912 ft | 326 kts | 88° |
| 2026-04-22 14:16 | 4.90332 | -74.59007 | 15598 ft | 324 kts | 88° |
| 2026-04-22 14:16 | 4.90457 | -74.56761 | 15289 ft | 322 kts | 88° |
| 2026-04-22 14:17 | 4.90578 | -74.54527 | 14984 ft | 320 kts | 87° |
| 2026-04-22 14:17 | 4.90696 | -74.52300 | 14691 ft | 319 kts | 88° |
| 2026-04-22 14:17 | 4.90815 | -74.50082 | 14396 ft | 317 kts | 87° |
| 2026-04-22 14:17 | 4.90935 | -74.47885 | 14145 ft | 315 kts | 87° |
| 2026-04-22 14:18 | 4.91055 | -74.45712 | 13985 ft | 308 kts | 88° |
| 2026-04-22 14:18 | 4.91049 | -74.43603 | 13854 ft | 298 kts | 99° |
| 2026-04-22 14:18 | 4.90463 | -74.41655 | 13739 ft | 288 kts | 117° |
| 2026-04-22 14:18 | 4.89356 | -74.40024 | 13620 ft | 279 kts | 134° |
| 2026-04-22 14:19 | 4.87922 | -74.38760 | 13482 ft | 270 kts | 141° |
| 2026-04-22 14:19 | 4.86581 | -74.37446 | 13155 ft | 270 kts | 130° |
| 2026-04-22 14:19 | 4.85430 | -74.35962 | 12813 ft | 268 kts | 127° |
| 2026-04-22 14:19 | 4.84344 | -74.34489 | 12499 ft | 257 kts | 127° |
| 2026-04-22 14:20 | 4.82324 | -74.31811 | 11899 ft | 221 kts | 127° |
| 2026-04-22 14:20 | 4.81432 | -74.30634 | 11644 ft | 201 kts | 127° |
| 2026-04-22 14:20 | 4.80611 | -74.29549 | 11400 ft | 190 kts | 127° |
| 2026-04-22 14:21 | 4.79102 | -74.27555 | 10962 ft | 170 kts | 127° |
| 2026-04-22 14:21 | 4.78397 | -74.26624 | 10762 ft | 166 kts | 126° |
| 2026-04-22 14:22 | 4.77012 | -74.24794 | 10364 ft | 164 kts | 126° |
| 2026-04-22 14:22 | 4.76326 | -74.23888 | 10167 ft | 163 kts | 127° |
| 2026-04-22 14:22 | 4.74961 | -74.22085 | 9736 ft | 162 kts | 127° |
| 2026-04-22 14:23 | 4.74280 | -74.21185 | 9514 ft | 162 kts | 127° |
| 2026-04-22 14:23 | 4.73599 | -74.20286 | 9280 ft | 162 kts | 127° |
| 2026-04-22 14:23 | 4.72919 | -74.19387 | 9040 ft | 162 kts | 127° |
| 2026-04-22 14:23 | 4.72245 | -74.18497 | 8809 ft | 162 kts | 127° |
| 2026-04-22 14:24 | 4.71550 | -74.17579 | 8561 ft | 163 kts | 127° |
| 2026-04-22 14:24 | 4.70880 | -74.16684 | 8380 ft | 161 kts | 127° |
| 2026-04-22 14:24 | 4.70263 | -74.15872 | 8363 ft | 117 kts | 127° |
| 2026-04-22 14:24 | 4.69940 | -74.15447 | 8365 ft | 52 kts | 127° |
| 2026-04-22 14:25 | 4.69774 | -74.15228 | 8365 ft | 34 kts | 126° |
| 2026-04-22 14:25 | 4.69715 | -74.15031 | 8364 ft | 23 kts | 97° |
| 2026-04-22 14:25 | 4.69698 | -74.14875 | 8365 ft | 21 kts | 87° |
| 2026-04-22 14:25 | 4.69784 | -74.14783 | 8366 ft | 14 kts | 36° |
| 2026-04-22 14:26 | 4.69850 | -74.14727 | 8366 ft | 9 kts | 67° |
| 2026-04-22 14:26 | 4.69826 | -74.14681 | 8366 ft | 7 kts | 127° |
| 2026-04-22 14:26 | 4.69803 | -74.14650 | 8366 ft | 4 kts | 126° |
| 2026-04-22 14:26 | 4.69790 | -74.14631 | 8366 ft | 2 kts | 124° |
| 2026-04-22 14:27 | 4.69764 | -74.14595 | 8366 ft | 13 kts | 127° |
| 2026-04-22 14:27 | 4.69717 | -74.14532 | 8366 ft | 6 kts | 112° |
| 2026-04-22 14:27 | 4.69734 | -74.14511 | 8366 ft | 3 kts | 37° |
| 2026-04-22 14:27 | 4.69745 | -74.14503 | 8366 ft | 1 kts | 37° |
| 2026-04-22 14:28 | 4.69755 | -74.14496 | 8366 ft | 1 kts | 37° |